sensor_id;sensor_type;location;lat;lon;timestamp;P1;durP1;ratioP1;P2;durP2;ratioP2
74363;SDS011;62797;49.740;10.154;2024-02-15T00:01:51;13.23;;;4.13;;
74363;SDS011;62797;49.740;10.154;2024-02-15T00:04:23;8.35;;;4.63;;
74363;SDS011;62797;49.740;10.154;2024-02-15T00:06:55;8.55;;;4.47;;
74363;SDS011;62797;49.740;10.154;2024-02-15T00:09:28;12.00;;;4.13;;
74363;SDS011;62797;49.740;10.154;2024-02-15T00:12:00;9.85;;;4.90;;
74363;SDS011;62797;49.740;10.154;2024-02-15T00:14:32;7.22;;;5.28;;
74363;SDS011;62797;49.740;10.154;2024-02-15T00:17:04;10.30;;;4.90;;
74363;SDS011;62797;49.740;10.154;2024-02-15T00:19:43;11.23;;;4.68;;
74363;SDS011;62797;49.740;10.154;2024-02-15T00:22:15;7.40;;;4.82;;
74363;SDS011;62797;49.740;10.154;2024-02-15T00:24:47;7.95;;;4.25;;
74363;SDS011;62797;49.740;10.154;2024-02-15T00:27:22;8.68;;;4.53;;
74363;SDS011;62797;49.740;10.154;2024-02-15T00:29:55;10.93;;;4.63;;
74363;SDS011;62797;49.740;10.154;2024-02-15T00:32:27;6.43;;;4.80;;
74363;SDS011;62797;49.740;10.154;2024-02-15T00:34:59;10.65;;;5.57;;
74363;SDS011;62797;49.740;10.154;2024-02-15T00:37:31;7.03;;;4.68;;
74363;SDS011;62797;49.740;10.154;2024-02-15T00:40:03;8.15;;;5.15;;
74363;SDS011;62797;49.740;10.154;2024-02-15T00:42:36;5.93;;;4.25;;
74363;SDS011;62797;49.740;10.154;2024-02-15T00:45:09;6.18;;;4.63;;
74363;SDS011;62797;49.740;10.154;2024-02-15T00:47:41;7.38;;;4.30;;
74363;SDS011;62797;49.740;10.154;2024-02-15T00:50:13;8.57;;;5.03;;
74363;SDS011;62797;49.740;10.154;2024-02-15T00:52:45;10.63;;;5.60;;
74363;SDS011;62797;49.740;10.154;2024-02-15T00:55:17;8.50;;;4.97;;
74363;SDS011;62797;49.740;10.154;2024-02-15T00:57:50;9.65;;;5.25;;
74363;SDS011;62797;49.740;10.154;2024-02-15T01:00:23;12.18;;;4.72;;
74363;SDS011;62797;49.740;10.154;2024-02-15T01:02:55;7.70;;;4.25;;
74363;SDS011;62797;49.740;10.154;2024-02-15T01:05:27;7.00;;;4.35;;
74363;SDS011;62797;49.740;10.154;2024-02-15T01:07:59;8.75;;;5.15;;
74363;SDS011;62797;49.740;10.154;2024-02-15T01:10:32;8.05;;;3.88;;
74363;SDS011;62797;49.740;10.154;2024-02-15T01:13:05;8.32;;;4.32;;
74363;SDS011;62797;49.740;10.154;2024-02-15T01:15:37;9.20;;;4.85;;
74363;SDS011;62797;49.740;10.154;2024-02-15T01:18:19;9.57;;;4.60;;
74363;SDS011;62797;49.740;10.154;2024-02-15T01:20:51;9.15;;;4.97;;
74363;SDS011;62797;49.740;10.154;2024-02-15T01:23:23;9.65;;;5.72;;
74363;SDS011;62797;49.740;10.154;2024-02-15T01:25:56;9.23;;;6.45;;
74363;SDS011;62797;49.740;10.154;2024-02-15T01:28:29;6.53;;;4.70;;
74363;SDS011;62797;49.740;10.154;2024-02-15T01:31:01;12.70;;;5.25;;
74363;SDS011;62797;49.740;10.154;2024-02-15T01:33:33;11.30;;;4.93;;
74363;SDS011;62797;49.740;10.154;2024-02-15T01:36:05;10.68;;;5.43;;
74363;SDS011;62797;49.740;10.154;2024-02-15T01:38:38;9.18;;;5.85;;
74363;SDS011;62797;49.740;10.154;2024-02-15T01:41:10;10.38;;;5.97;;
74363;SDS011;62797;49.740;10.154;2024-02-15T01:43:45;11.38;;;6.53;;
74363;SDS011;62797;49.740;10.154;2024-02-15T01:46:19;8.02;;;5.20;;
74363;SDS011;62797;49.740;10.154;2024-02-15T01:48:53;11.10;;;5.28;;
74363;SDS011;62797;49.740;10.154;2024-02-15T01:51:27;7.40;;;4.90;;
74363;SDS011;62797;49.740;10.154;2024-02-15T01:54:00;7.95;;;4.57;;
74363;SDS011;62797;49.740;10.154;2024-02-15T01:56:33;9.32;;;4.68;;
74363;SDS011;62797;49.740;10.154;2024-02-15T01:59:05;11.88;;;5.20;;
74363;SDS011;62797;49.740;10.154;2024-02-15T02:01:38;16.50;;;6.63;;
74363;SDS011;62797;49.740;10.154;2024-02-15T02:04:10;14.55;;;7.32;;
74363;SDS011;62797;49.740;10.154;2024-02-15T02:06:42;16.50;;;7.40;;
74363;SDS011;62797;49.740;10.154;2024-02-15T02:09:14;11.82;;;6.85;;
74363;SDS011;62797;49.740;10.154;2024-02-15T02:11:47;14.45;;;6.50;;
74363;SDS011;62797;49.740;10.154;2024-02-15T02:14:21;9.75;;;6.10;;
74363;SDS011;62797;49.740;10.154;2024-02-15T02:16:53;10.18;;;5.85;;
74363;SDS011;62797;49.740;10.154;2024-02-15T02:19:32;9.95;;;5.22;;
74363;SDS011;62797;49.740;10.154;2024-02-15T02:22:04;14.15;;;6.35;;
74363;SDS011;62797;49.740;10.154;2024-02-15T02:24:42;10.80;;;5.10;;
74363;SDS011;62797;49.740;10.154;2024-02-15T02:27:30;10.52;;;4.82;;
74363;SDS011;62797;49.740;10.154;2024-02-15T02:30:05;9.73;;;4.63;;
74363;SDS011;62797;49.740;10.154;2024-02-15T02:32:46;8.63;;;4.18;;
74363;SDS011;62797;49.740;10.154;2024-02-15T02:35:19;6.05;;;3.88;;
74363;SDS011;62797;49.740;10.154;2024-02-15T02:37:52;13.27;;;4.75;;
74363;SDS011;62797;49.740;10.154;2024-02-15T02:40:24;6.95;;;5.00;;
74363;SDS011;62797;49.740;10.154;2024-02-15T02:42:56;7.47;;;4.72;;
74363;SDS011;62797;49.740;10.154;2024-02-15T02:45:32;6.38;;;4.65;;
74363;SDS011;62797;49.740;10.154;2024-02-15T02:48:04;16.45;;;5.47;;
74363;SDS011;62797;49.740;10.154;2024-02-15T02:50:37;9.90;;;4.80;;
74363;SDS011;62797;49.740;10.154;2024-02-15T02:53:09;6.88;;;5.15;;
74363;SDS011;62797;49.740;10.154;2024-02-15T02:55:42;11.38;;;4.57;;
74363;SDS011;62797;49.740;10.154;2024-02-15T02:58:14;7.40;;;3.85;;
74363;SDS011;62797;49.740;10.154;2024-02-15T03:00:46;6.57;;;4.22;;
74363;SDS011;62797;49.740;10.154;2024-02-15T03:03:18;11.88;;;5.00;;
74363;SDS011;62797;49.740;10.154;2024-02-15T03:05:50;7.50;;;4.40;;
74363;SDS011;62797;49.740;10.154;2024-02-15T03:08:22;7.63;;;4.63;;
74363;SDS011;62797;49.740;10.154;2024-02-15T03:10:55;7.93;;;4.43;;
74363;SDS011;62797;49.740;10.154;2024-02-15T03:13:27;7.20;;;3.80;;
74363;SDS011;62797;49.740;10.154;2024-02-15T03:16:07;11.13;;;4.43;;
74363;SDS011;62797;49.740;10.154;2024-02-15T03:18:39;7.03;;;4.22;;
74363;SDS011;62797;49.740;10.154;2024-02-15T03:21:12;9.20;;;4.70;;
74363;SDS011;62797;49.740;10.154;2024-02-15T03:23:44;9.13;;;4.15;;
74363;SDS011;62797;49.740;10.154;2024-02-15T03:26:20;8.02;;;4.25;;
74363;SDS011;62797;49.740;10.154;2024-02-15T03:29:07;9.35;;;4.63;;
74363;SDS011;62797;49.740;10.154;2024-02-15T03:31:41;10.20;;;6.40;;
74363;SDS011;62797;49.740;10.154;2024-02-15T03:34:13;6.63;;;4.57;;
74363;SDS011;62797;49.740;10.154;2024-02-15T03:36:47;15.27;;;6.78;;
74363;SDS011;62797;49.740;10.154;2024-02-15T03:39:23;11.35;;;5.88;;
74363;SDS011;62797;49.740;10.154;2024-02-15T03:41:56;10.65;;;6.32;;
74363;SDS011;62797;49.740;10.154;2024-02-15T03:44:30;8.02;;;5.38;;
74363;SDS011;62797;49.740;10.154;2024-02-15T03:47:02;9.43;;;6.00;;
74363;SDS011;62797;49.740;10.154;2024-02-15T03:49:36;7.72;;;4.93;;
74363;SDS011;62797;49.740;10.154;2024-02-15T03:52:08;9.60;;;5.93;;
74363;SDS011;62797;49.740;10.154;2024-02-15T03:54:43;8.57;;;4.95;;
74363;SDS011;62797;49.740;10.154;2024-02-15T03:57:15;9.63;;;5.22;;
74363;SDS011;62797;49.740;10.154;2024-02-15T03:59:48;11.75;;;5.40;;
74363;SDS011;62797;49.740;10.154;2024-02-15T04:02:25;14.63;;;5.25;;
74363;SDS011;62797;49.740;10.154;2024-02-15T04:05:01;9.20;;;5.63;;
74363;SDS011;62797;49.740;10.154;2024-02-15T04:07:36;11.50;;;5.03;;
74363;SDS011;62797;49.740;10.154;2024-02-15T04:10:08;8.27;;;4.85;;
74363;SDS011;62797;49.740;10.154;2024-02-15T04:12:40;8.95;;;4.53;;
74363;SDS011;62797;49.740;10.154;2024-02-15T04:15:15;6.85;;;4.65;;
74363;SDS011;62797;49.740;10.154;2024-02-15T04:18:01;6.95;;;4.13;;
74363;SDS011;62797;49.740;10.154;2024-02-15T04:20:33;9.75;;;5.13;;
74363;SDS011;62797;49.740;10.154;2024-02-15T04:23:05;11.38;;;5.32;;
74363;SDS011;62797;49.740;10.154;2024-02-15T04:25:37;10.23;;;6.20;;
74363;SDS011;62797;49.740;10.154;2024-02-15T04:28:11;13.80;;;4.95;;
74363;SDS011;62797;49.740;10.154;2024-02-15T04:30:43;12.25;;;4.60;;
74363;SDS011;62797;49.740;10.154;2024-02-15T04:33:16;8.85;;;5.78;;
74363;SDS011;62797;49.740;10.154;2024-02-15T04:35:48;12.13;;;5.38;;
74363;SDS011;62797;49.740;10.154;2024-02-15T04:38:22;13.45;;;5.82;;
74363;SDS011;62797;49.740;10.154;2024-02-15T04:40:56;10.07;;;5.15;;
74363;SDS011;62797;49.740;10.154;2024-02-15T04:43:31;7.40;;;4.35;;
74363;SDS011;62797;49.740;10.154;2024-02-15T04:46:05;9.13;;;4.70;;
74363;SDS011;62797;49.740;10.154;2024-02-15T04:48:40;10.27;;;5.07;;
74363;SDS011;62797;49.740;10.154;2024-02-15T04:51:15;9.93;;;4.28;;
74363;SDS011;62797;49.740;10.154;2024-02-15T04:53:55;7.03;;;4.65;;
74363;SDS011;62797;49.740;10.154;2024-02-15T04:56:35;8.35;;;4.78;;
74363;SDS011;62797;49.740;10.154;2024-02-15T04:59:10;9.20;;;4.20;;
74363;SDS011;62797;49.740;10.154;2024-02-15T05:01:46;7.65;;;4.18;;
74363;SDS011;62797;49.740;10.154;2024-02-15T05:04:20;6.90;;;4.63;;
74363;SDS011;62797;49.740;10.154;2024-02-15T05:06:52;11.68;;;4.85;;
74363;SDS011;62797;49.740;10.154;2024-02-15T05:09:24;7.13;;;4.10;;
74363;SDS011;62797;49.740;10.154;2024-02-15T05:11:59;9.15;;;3.88;;
74363;SDS011;62797;49.740;10.154;2024-02-15T05:14:32;10.13;;;5.13;;
74363;SDS011;62797;49.740;10.154;2024-02-15T05:17:11;11.38;;;4.30;;
74363;SDS011;62797;49.740;10.154;2024-02-15T05:19:43;10.10;;;4.45;;
74363;SDS011;62797;49.740;10.154;2024-02-15T05:22:16;8.98;;;4.43;;
74363;SDS011;62797;49.740;10.154;2024-02-15T05:24:51;9.25;;;5.00;;
74363;SDS011;62797;49.740;10.154;2024-02-15T05:27:23;8.25;;;4.65;;
74363;SDS011;62797;49.740;10.154;2024-02-15T05:29:55;10.48;;;4.35;;
74363;SDS011;62797;49.740;10.154;2024-02-15T05:32:34;6.15;;;4.05;;
74363;SDS011;62797;49.740;10.154;2024-02-15T05:35:14;8.50;;;3.85;;
74363;SDS011;62797;49.740;10.154;2024-02-15T05:37:46;5.57;;;3.25;;
74363;SDS011;62797;49.740;10.154;2024-02-15T05:40:18;11.63;;;4.72;;
74363;SDS011;62797;49.740;10.154;2024-02-15T05:42:54;5.50;;;3.80;;
74363;SDS011;62797;49.740;10.154;2024-02-15T05:48:07;9.77;;;4.72;;
74363;SDS011;62797;49.740;10.154;2024-02-15T05:50:40;10.13;;;4.38;;
74363;SDS011;62797;49.740;10.154;2024-02-15T05:53:12;9.77;;;4.93;;
74363;SDS011;62797;49.740;10.154;2024-02-15T05:55:44;8.98;;;4.38;;
74363;SDS011;62797;49.740;10.154;2024-02-15T05:58:16;6.40;;;4.20;;
74363;SDS011;62797;49.740;10.154;2024-02-15T06:00:48;8.75;;;4.60;;
74363;SDS011;62797;49.740;10.154;2024-02-15T06:03:21;10.05;;;4.85;;
74363;SDS011;62797;49.740;10.154;2024-02-15T06:05:57;9.57;;;5.28;;
74363;SDS011;62797;49.740;10.154;2024-02-15T06:08:29;12.40;;;6.05;;
74363;SDS011;62797;49.740;10.154;2024-02-15T06:11:02;11.20;;;5.57;;
74363;SDS011;62797;49.740;10.154;2024-02-15T06:13:35;6.80;;;5.20;;
74363;SDS011;62797;49.740;10.154;2024-02-15T06:16:07;13.18;;;7.43;;
74363;SDS011;62797;49.740;10.154;2024-02-15T06:18:46;10.93;;;6.68;;
74363;SDS011;62797;49.740;10.154;2024-02-15T06:21:27;13.75;;;5.43;;
74363;SDS011;62797;49.740;10.154;2024-02-15T06:24:06;14.30;;;5.65;;
74363;SDS011;62797;49.740;10.154;2024-02-15T06:26:38;14.48;;;6.05;;
74363;SDS011;62797;49.740;10.154;2024-02-15T06:29:11;17.60;;;8.45;;
74363;SDS011;62797;49.740;10.154;2024-02-15T06:32:01;16.45;;;7.53;;
74363;SDS011;62797;49.740;10.154;2024-02-15T06:34:52;17.90;;;8.75;;
74363;SDS011;62797;49.740;10.154;2024-02-15T06:37:43;12.13;;;7.30;;
74363;SDS011;62797;49.740;10.154;2024-02-15T06:40:34;18.00;;;8.00;;
74363;SDS011;62797;49.740;10.154;2024-02-15T06:43:07;17.15;;;8.93;;
74363;SDS011;62797;49.740;10.154;2024-02-15T06:45:39;13.57;;;9.20;;
74363;SDS011;62797;49.740;10.154;2024-02-15T06:48:16;14.52;;;7.40;;
74363;SDS011;62797;49.740;10.154;2024-02-15T06:50:48;24.77;;;8.88;;
74363;SDS011;62797;49.740;10.154;2024-02-15T06:53:20;13.05;;;7.35;;
74363;SDS011;62797;49.740;10.154;2024-02-15T06:55:52;15.27;;;6.15;;
74363;SDS011;62797;49.740;10.154;2024-02-15T06:58:24;11.13;;;5.97;;
74363;SDS011;62797;49.740;10.154;2024-02-15T07:00:56;8.98;;;5.38;;
74363;SDS011;62797;49.740;10.154;2024-02-15T07:03:28;13.50;;;4.63;;
74363;SDS011;62797;49.740;10.154;2024-02-15T07:06:01;11.95;;;5.05;;
74363;SDS011;62797;49.740;10.154;2024-02-15T07:08:35;14.52;;;5.63;;
74363;SDS011;62797;49.740;10.154;2024-02-15T07:11:07;6.80;;;3.90;;
74363;SDS011;62797;49.740;10.154;2024-02-15T07:13:40;8.75;;;4.63;;
74363;SDS011;62797;49.740;10.154;2024-02-15T07:16:13;9.43;;;4.75;;
74363;SDS011;62797;49.740;10.154;2024-02-15T07:18:52;12.35;;;4.88;;
74363;SDS011;62797;49.740;10.154;2024-02-15T07:21:24;12.35;;;5.97;;
74363;SDS011;62797;49.740;10.154;2024-02-15T07:24:00;11.18;;;5.47;;
74363;SDS011;62797;49.740;10.154;2024-02-15T07:26:32;13.85;;;6.53;;
74363;SDS011;62797;49.740;10.154;2024-02-15T07:29:06;13.75;;;5.70;;
74363;SDS011;62797;49.740;10.154;2024-02-15T07:31:39;9.07;;;5.00;;
74363;SDS011;62797;49.740;10.154;2024-02-15T07:34:12;15.02;;;5.50;;
74363;SDS011;62797;49.740;10.154;2024-02-15T07:36:44;11.90;;;6.53;;
74363;SDS011;62797;49.740;10.154;2024-02-15T07:39:18;8.80;;;4.38;;
74363;SDS011;62797;49.740;10.154;2024-02-15T07:41:56;7.03;;;5.18;;
74363;SDS011;62797;49.740;10.154;2024-02-15T07:44:32;10.10;;;5.25;;
74363;SDS011;62797;49.740;10.154;2024-02-15T07:47:06;12.63;;;4.30;;
74363;SDS011;62797;49.740;10.154;2024-02-15T07:49:38;8.63;;;3.63;;
74363;SDS011;62797;49.740;10.154;2024-02-15T07:52:10;7.90;;;3.53;;
74363;SDS011;62797;49.740;10.154;2024-02-15T07:54:42;6.85;;;3.25;;
74363;SDS011;62797;49.740;10.154;2024-02-15T07:57:14;11.90;;;4.05;;
74363;SDS011;62797;49.740;10.154;2024-02-15T07:59:46;8.38;;;4.10;;
74363;SDS011;62797;49.740;10.154;2024-02-15T08:02:20;5.82;;;3.50;;
74363;SDS011;62797;49.740;10.154;2024-02-15T08:04:54;4.95;;;3.25;;
74363;SDS011;62797;49.740;10.154;2024-02-15T08:07:26;4.97;;;2.97;;
74363;SDS011;62797;49.740;10.154;2024-02-15T08:10:03;6.15;;;3.22;;
74363;SDS011;62797;49.740;10.154;2024-02-15T08:12:40;6.15;;;2.55;;
74363;SDS011;62797;49.740;10.154;2024-02-15T08:15:12;3.70;;;3.08;;
74363;SDS011;62797;49.740;10.154;2024-02-15T08:17:51;8.63;;;3.80;;
74363;SDS011;62797;49.740;10.154;2024-02-15T08:20:24;5.57;;;3.92;;
74363;SDS011;62797;49.740;10.154;2024-02-15T08:22:57;7.03;;;4.88;;
74363;SDS011;62797;49.740;10.154;2024-02-15T08:25:30;8.43;;;3.72;;
74363;SDS011;62797;49.740;10.154;2024-02-15T08:28:02;5.28;;;2.92;;
74363;SDS011;62797;49.740;10.154;2024-02-15T08:30:37;8.90;;;4.40;;
74363;SDS011;62797;49.740;10.154;2024-02-15T08:33:09;8.18;;;3.33;;
74363;SDS011;62797;49.740;10.154;2024-02-15T08:35:42;10.02;;;3.85;;
74363;SDS011;62797;49.740;10.154;2024-02-15T08:38:15;10.75;;;3.95;;
74363;SDS011;62797;49.740;10.154;2024-02-15T08:40:48;8.55;;;3.58;;
74363;SDS011;62797;49.740;10.154;2024-02-15T08:43:20;6.88;;;2.83;;
74363;SDS011;62797;49.740;10.154;2024-02-15T08:45:52;9.52;;;3.10;;
74363;SDS011;62797;49.740;10.154;2024-02-15T08:48:24;6.25;;;2.72;;
74363;SDS011;62797;49.740;10.154;2024-02-15T08:50:57;6.93;;;3.17;;
74363;SDS011;62797;49.740;10.154;2024-02-15T08:53:29;7.43;;;3.20;;
74363;SDS011;62797;49.740;10.154;2024-02-15T08:56:05;7.60;;;2.90;;
74363;SDS011;62797;49.740;10.154;2024-02-15T08:58:38;3.60;;;1.90;;
74363;SDS011;62797;49.740;10.154;2024-02-15T09:01:12;5.43;;;2.80;;
74363;SDS011;62797;49.740;10.154;2024-02-15T09:03:44;7.68;;;2.90;;
74363;SDS011;62797;49.740;10.154;2024-02-15T09:06:16;4.35;;;2.50;;
74363;SDS011;62797;49.740;10.154;2024-02-15T09:08:48;5.65;;;2.40;;
74363;SDS011;62797;49.740;10.154;2024-02-15T09:11:20;5.43;;;2.97;;
74363;SDS011;62797;49.740;10.154;2024-02-15T09:13:54;5.65;;;3.08;;
74363;SDS011;62797;49.740;10.154;2024-02-15T09:16:26;12.30;;;3.10;;
74363;SDS011;62797;49.740;10.154;2024-02-15T09:18:58;4.20;;;2.40;;
74363;SDS011;62797;49.740;10.154;2024-02-15T09:21:33;5.72;;;3.17;;
74363;SDS011;62797;49.740;10.154;2024-02-15T09:24:05;11.18;;;2.80;;
74363;SDS011;62797;49.740;10.154;2024-02-15T09:26:37;7.60;;;2.55;;
74363;SDS011;62797;49.740;10.154;2024-02-15T09:29:09;6.82;;;2.65;;
74363;SDS011;62797;49.740;10.154;2024-02-15T09:31:42;4.72;;;2.33;;
74363;SDS011;62797;49.740;10.154;2024-02-15T09:34:14;9.93;;;4.30;;
74363;SDS011;62797;49.740;10.154;2024-02-15T09:36:46;12.40;;;4.43;;
74363;SDS011;62797;49.740;10.154;2024-02-15T09:39:18;7.18;;;3.25;;
74363;SDS011;62797;49.740;10.154;2024-02-15T09:41:50;6.10;;;2.85;;
74363;SDS011;62797;49.740;10.154;2024-02-15T09:44:29;9.15;;;2.60;;
74363;SDS011;62797;49.740;10.154;2024-02-15T09:47:02;8.75;;;3.28;;
74363;SDS011;62797;49.740;10.154;2024-02-15T09:49:39;7.60;;;3.72;;
74363;SDS011;62797;49.740;10.154;2024-02-15T09:52:11;6.65;;;3.20;;
74363;SDS011;62797;49.740;10.154;2024-02-15T09:54:47;9.50;;;3.13;;
74363;SDS011;62797;49.740;10.154;2024-02-15T09:57:19;4.45;;;2.60;;
74363;SDS011;62797;49.740;10.154;2024-02-15T09:59:53;6.85;;;3.00;;
74363;SDS011;62797;49.740;10.154;2024-02-15T10:02:28;8.35;;;2.60;;
74363;SDS011;62797;49.740;10.154;2024-02-15T10:05:02;5.57;;;2.35;;
74363;SDS011;62797;49.740;10.154;2024-02-15T10:07:34;5.85;;;2.22;;
74363;SDS011;62797;49.740;10.154;2024-02-15T10:10:16;8.57;;;3.25;;
74363;SDS011;62797;49.740;10.154;2024-02-15T10:12:55;6.82;;;2.22;;
74363;SDS011;62797;49.740;10.154;2024-02-15T10:15:28;5.57;;;2.83;;
74363;SDS011;62797;49.740;10.154;2024-02-15T10:18:07;10.30;;;2.63;;
74363;SDS011;62797;49.740;10.154;2024-02-15T10:20:56;8.30;;;2.92;;
74363;SDS011;62797;49.740;10.154;2024-02-15T10:23:29;5.00;;;2.28;;
74363;SDS011;62797;49.740;10.154;2024-02-15T10:26:07;7.32;;;2.47;;
74363;SDS011;62797;49.740;10.154;2024-02-15T10:29:04;11.23;;;2.75;;
74363;SDS011;62797;49.740;10.154;2024-02-15T10:31:51;7.07;;;2.42;;
74363;SDS011;62797;49.740;10.154;2024-02-15T10:34:27;7.22;;;2.60;;
74363;SDS011;62797;49.740;10.154;2024-02-15T10:37:15;6.05;;;2.08;;
74363;SDS011;62797;49.740;10.154;2024-02-15T10:40:04;3.55;;;1.73;;
74363;SDS011;62797;49.740;10.154;2024-02-15T10:42:40;5.85;;;2.75;;
74363;SDS011;62797;49.740;10.154;2024-02-15T10:45:15;8.30;;;3.10;;
74363;SDS011;62797;49.740;10.154;2024-02-15T10:47:49;10.73;;;2.83;;
74363;SDS011;62797;49.740;10.154;2024-02-15T10:50:25;6.22;;;2.63;;
74363;SDS011;62797;49.740;10.154;2024-02-15T10:52:58;9.50;;;2.22;;
74363;SDS011;62797;49.740;10.154;2024-02-15T10:58:10;14.13;;;2.90;;
74363;SDS011;62797;49.740;10.154;2024-02-15T11:00:48;11.18;;;2.72;;
74363;SDS011;62797;49.740;10.154;2024-02-15T11:03:25;12.63;;;3.42;;
74363;SDS011;62797;49.740;10.154;2024-02-15T11:06:04;6.38;;;2.50;;
74363;SDS011;62797;49.740;10.154;2024-02-15T11:08:38;7.60;;;2.70;;
74363;SDS011;62797;49.740;10.154;2024-02-15T11:11:11;3.60;;;1.98;;
74363;SDS011;62797;49.740;10.154;2024-02-15T11:13:48;9.10;;;2.35;;
74363;SDS011;62797;49.740;10.154;2024-02-15T11:22:11;5.78;;;2.67;;
74363;SDS011;62797;49.740;10.154;2024-02-15T11:24:51;4.88;;;2.72;;
74363;SDS011;62797;49.740;10.154;2024-02-15T11:27:25;12.98;;;2.40;;
74363;SDS011;62797;49.740;10.154;2024-02-15T11:29:59;8.88;;;2.38;;
74363;SDS011;62797;49.740;10.154;2024-02-15T11:32:45;13.65;;;3.05;;
74363;SDS011;62797;49.740;10.154;2024-02-15T11:35:21;5.55;;;2.00;;
74363;SDS011;62797;49.740;10.154;2024-02-15T11:37:55;9.45;;;2.45;;
74363;SDS011;62797;49.740;10.154;2024-02-15T11:46:12;4.70;;;2.15;;
74363;SDS011;62797;49.740;10.154;2024-02-15T11:48:50;6.43;;;1.75;;
74363;SDS011;62797;49.740;10.154;2024-02-15T11:51:27;7.90;;;2.22;;
74363;SDS011;62797;49.740;10.154;2024-02-15T11:54:11;8.25;;;2.47;;
74363;SDS011;62797;49.740;10.154;2024-02-15T11:59:18;9.20;;;2.83;;
74363;SDS011;62797;49.740;10.154;2024-02-15T12:02:01;4.68;;;1.83;;
74363;SDS011;62797;49.740;10.154;2024-02-15T12:04:53;3.95;;;1.73;;
74363;SDS011;62797;49.740;10.154;2024-02-15T12:07:44;4.95;;;1.77;;
74363;SDS011;62797;49.740;10.154;2024-02-15T12:10:35;6.78;;;1.42;;
74363;SDS011;62797;49.740;10.154;2024-02-15T12:13:26;8.13;;;2.80;;
74363;SDS011;62797;49.740;10.154;2024-02-15T12:16:37;8.10;;;2.20;;
74363;SDS011;62797;49.740;10.154;2024-02-15T12:19:28;12.63;;;2.38;;
74363;SDS011;62797;49.740;10.154;2024-02-15T12:22:01;4.80;;;1.90;;
74363;SDS011;62797;49.740;10.154;2024-02-15T12:24:36;3.45;;;1.70;;
74363;SDS011;62797;49.740;10.154;2024-02-15T12:27:08;3.03;;;1.40;;
74363;SDS011;62797;49.740;10.154;2024-02-15T12:29:40;3.92;;;1.67;;
74363;SDS011;62797;49.740;10.154;2024-02-15T12:32:19;5.68;;;1.52;;
74363;SDS011;62797;49.740;10.154;2024-02-15T12:35:09;8.63;;;2.03;;
74363;SDS011;62797;49.740;10.154;2024-02-15T12:38:01;6.28;;;1.88;;
74363;SDS011;62797;49.740;10.154;2024-02-15T12:40:39;5.72;;;1.38;;
74363;SDS011;62797;49.740;10.154;2024-02-15T12:43:17;2.13;;;1.25;;
74363;SDS011;62797;49.740;10.154;2024-02-15T12:45:49;4.82;;;1.52;;
74363;SDS011;62797;49.740;10.154;2024-02-15T12:48:21;7.60;;;2.63;;
74363;SDS011;62797;49.740;10.154;2024-02-15T12:50:54;5.97;;;1.60;;
74363;SDS011;62797;49.740;10.154;2024-02-15T12:53:27;9.05;;;2.45;;
74363;SDS011;62797;49.740;10.154;2024-02-15T12:55:59;28.55;;;3.03;;
74363;SDS011;62797;49.740;10.154;2024-02-15T12:58:31;6.88;;;1.50;;
74363;SDS011;62797;49.740;10.154;2024-02-15T13:01:03;9.68;;;1.70;;
74363;SDS011;62797;49.740;10.154;2024-02-15T13:03:35;5.22;;;1.92;;
74363;SDS011;62797;49.740;10.154;2024-02-15T13:06:07;5.18;;;1.65;;
74363;SDS011;62797;49.740;10.154;2024-02-15T13:08:39;2.70;;;1.35;;
74363;SDS011;62797;49.740;10.154;2024-02-15T13:11:12;2.97;;;1.77;;
74363;SDS011;62797;49.740;10.154;2024-02-15T13:13:44;5.35;;;1.50;;
74363;SDS011;62797;49.740;10.154;2024-02-15T13:16:17;2.72;;;0.90;;
74363;SDS011;62797;49.740;10.154;2024-02-15T13:18:56;6.75;;;1.85;;
74363;SDS011;62797;49.740;10.154;2024-02-15T13:21:30;10.73;;;1.45;;
74363;SDS011;62797;49.740;10.154;2024-02-15T13:24:02;4.28;;;1.08;;
74363;SDS011;62797;49.740;10.154;2024-02-15T13:26:36;4.25;;;1.08;;
74363;SDS011;62797;49.740;10.154;2024-02-15T13:29:08;5.10;;;1.30;;
74363;SDS011;62797;49.740;10.154;2024-02-15T13:31:41;6.85;;;1.23;;
74363;SDS011;62797;49.740;10.154;2024-02-15T13:34:14;3.30;;;1.10;;
74363;SDS011;62797;49.740;10.154;2024-02-15T13:36:49;4.97;;;1.45;;
74363;SDS011;62797;49.740;10.154;2024-02-15T13:39:21;3.08;;;1.02;;
74363;SDS011;62797;49.740;10.154;2024-02-15T13:41:54;16.88;;;1.23;;
74363;SDS011;62797;49.740;10.154;2024-02-15T13:44:26;3.08;;;1.20;;
74363;SDS011;62797;49.740;10.154;2024-02-15T13:46:59;6.93;;;2.10;;
74363;SDS011;62797;49.740;10.154;2024-02-15T13:49:38;6.63;;;0.85;;
74363;SDS011;62797;49.740;10.154;2024-02-15T13:52:10;3.83;;;0.80;;
74363;SDS011;62797;49.740;10.154;2024-02-15T13:54:42;4.97;;;1.48;;
74363;SDS011;62797;49.740;10.154;2024-02-15T13:57:14;5.38;;;1.40;;
74363;SDS011;62797;49.740;10.154;2024-02-15T13:59:48;3.22;;;1.30;;
74363;SDS011;62797;49.740;10.154;2024-02-15T14:02:20;5.00;;;1.17;;
74363;SDS011;62797;49.740;10.154;2024-02-15T14:04:52;5.25;;;1.70;;
74363;SDS011;62797;49.740;10.154;2024-02-15T14:07:24;4.55;;;1.23;;
74363;SDS011;62797;49.740;10.154;2024-02-15T14:09:56;9.00;;;1.30;;
74363;SDS011;62797;49.740;10.154;2024-02-15T14:12:29;3.67;;;1.58;;
74363;SDS011;62797;49.740;10.154;2024-02-15T14:15:01;6.72;;;1.38;;
74363;SDS011;62797;49.740;10.154;2024-02-15T14:17:34;4.80;;;1.27;;
74363;SDS011;62797;49.740;10.154;2024-02-15T14:20:06;6.75;;;2.35;;
74363;SDS011;62797;49.740;10.154;2024-02-15T14:22:46;3.92;;;1.60;;
74363;SDS011;62797;49.740;10.154;2024-02-15T14:25:26;3.97;;;2.05;;
74363;SDS011;62797;49.740;10.154;2024-02-15T14:27:58;3.25;;;1.45;;
74363;SDS011;62797;49.740;10.154;2024-02-15T14:30:31;2.92;;;1.23;;
74363;SDS011;62797;49.740;10.154;2024-02-15T14:33:22;6.35;;;1.73;;
74363;SDS011;62797;49.740;10.154;2024-02-15T14:35:55;7.85;;;1.92;;
74363;SDS011;62797;49.740;10.154;2024-02-15T14:38:27;3.97;;;1.83;;
74363;SDS011;62797;49.740;10.154;2024-02-15T14:41:00;10.15;;;1.33;;
74363;SDS011;62797;49.740;10.154;2024-02-15T14:43:35;13.10;;;1.70;;
74363;SDS011;62797;49.740;10.154;2024-02-15T14:46:08;7.75;;;1.48;;
74363;SDS011;62797;49.740;10.154;2024-02-15T14:48:41;4.10;;;1.17;;
74363;SDS011;62797;49.740;10.154;2024-02-15T14:51:15;6.03;;;1.00;;
74363;SDS011;62797;49.740;10.154;2024-02-15T14:53:50;3.67;;;1.00;;
74363;SDS011;62797;49.740;10.154;2024-02-15T14:56:22;3.85;;;1.38;;
74363;SDS011;62797;49.740;10.154;2024-02-15T14:58:55;4.18;;;1.02;;
74363;SDS011;62797;49.740;10.154;2024-02-15T15:01:28;5.30;;;1.40;;
74363;SDS011;62797;49.740;10.154;2024-02-15T15:04:00;8.00;;;1.92;;
74363;SDS011;62797;49.740;10.154;2024-02-15T15:06:37;5.20;;;1.33;;
74363;SDS011;62797;49.740;10.154;2024-02-15T15:09:28;6.47;;;1.65;;
74363;SDS011;62797;49.740;10.154;2024-02-15T15:12:19;2.05;;;1.27;;
74363;SDS011;62797;49.740;10.154;2024-02-15T15:15:11;3.95;;;1.35;;
74363;SDS011;62797;49.740;10.154;2024-02-15T15:17:53;3.53;;;1.25;;
74363;SDS011;62797;49.740;10.154;2024-02-15T15:20:26;2.22;;;0.70;;
74363;SDS011;62797;49.740;10.154;2024-02-15T15:22:58;1.33;;;0.82;;
74363;SDS011;62797;49.740;10.154;2024-02-15T15:25:32;2.00;;;0.90;;
74363;SDS011;62797;49.740;10.154;2024-02-15T15:28:05;4.10;;;1.27;;
74363;SDS011;62797;49.740;10.154;2024-02-15T15:30:37;7.00;;;1.70;;
74363;SDS011;62797;49.740;10.154;2024-02-15T15:33:09;6.68;;;1.38;;
74363;SDS011;62797;49.740;10.154;2024-02-15T15:35:45;4.95;;;1.35;;